sensor_id;sensor_type;location;lat;lon;timestamp;pressure;altitude;pressure_sealevel;temperature;humidity
46303;BME280;32029;51.358;5.628;2023-03-04T00:01:15;102346.91;;;9.43;60.62
46303;BME280;32029;51.358;5.628;2023-03-04T00:03:41;102359.19;;;9.49;60.70
46303;BME280;32029;51.358;5.628;2023-03-04T00:06:08;102380.22;;;9.58;60.87
46303;BME280;32029;51.358;5.628;2023-03-04T00:08:35;102358.16;;;9.50;60.73
46303;BME280;32029;51.358;5.628;2023-03-04T00:11:02;102371.44;;;9.64;60.99
46303;BME280;32029;51.358;5.628;2023-03-04T00:13:29;102378.66;;;9.65;60.73
46303;BME280;32029;51.358;5.628;2023-03-04T00:15:56;102369.00;;;9.61;60.40
46303;BME280;32029;51.358;5.628;2023-03-04T00:18:23;102357.16;;;9.51;60.69
46303;BME280;32029;51.358;5.628;2023-03-04T00:20:49;102364.06;;;9.55;61.02
46303;BME280;32029;51.358;5.628;2023-03-04T00:23:16;102360.34;;;9.56;60.95
46303;BME280;32029;51.358;5.628;2023-03-04T00:25:43;102381.41;;;9.65;61.04
46303;BME280;32029;51.358;5.628;2023-03-04T00:28:10;102375.91;;;9.65;60.85
46303;BME280;32029;51.358;5.628;2023-03-04T00:30:37;102358.31;;;9.58;60.92
46303;BME280;32029;51.358;5.628;2023-03-04T00:33:04;102363.06;;;9.66;60.50
46303;BME280;32029;51.358;5.628;2023-03-04T00:35:31;102356.59;;;9.57;60.86
46303;BME280;32029;51.358;5.628;2023-03-04T00:37:57;102342.47;;;9.52;60.67
46303;BME280;32029;51.358;5.628;2023-03-04T00:40:24;102365.22;;;9.62;60.77
46303;BME280;32029;51.358;5.628;2023-03-04T00:42:51;102327.13;;;9.40;60.97
46303;BME280;32029;51.358;5.628;2023-03-04T00:45:18;102338.97;;;9.50;61.02
46303;BME280;32029;51.358;5.628;2023-03-04T00:47:44;102286.03;;;9.20;60.66
46303;BME280;32029;51.358;5.628;2023-03-04T00:50:11;102353.25;;;9.63;61.07
46303;BME280;32029;51.358;5.628;2023-03-04T00:52:38;102360.50;;;9.64;60.67
46303;BME280;32029;51.358;5.628;2023-03-04T00:55:05;102360.78;;;9.61;60.65
46303;BME280;32029;51.358;5.628;2023-03-04T00:57:32;102358.47;;;9.56;60.63
46303;BME280;32029;51.358;5.628;2023-03-04T00:59:59;102366.09;;;9.53;60.98
46303;BME280;32029;51.358;5.628;2023-03-04T01:02:26;102349.66;;;9.43;60.92
46303;BME280;32029;51.358;5.628;2023-03-04T01:04:52;102349.25;;;9.48;60.99
46303;BME280;32029;51.358;5.628;2023-03-04T01:07:19;102363.94;;;9.56;61.22
46303;BME280;32029;51.358;5.628;2023-03-04T01:09:46;102371.16;;;9.57;61.36
46303;BME280;32029;51.358;5.628;2023-03-04T01:12:12;102376.34;;;9.61;61.05
46303;BME280;32029;51.358;5.628;2023-03-04T01:14:39;102349.94;;;9.50;61.02
46303;BME280;32029;51.358;5.628;2023-03-04T01:17:06;102363.50;;;9.61;61.53
46303;BME280;32029;51.358;5.628;2023-03-04T01:19:32;102353.44;;;9.52;60.91
46303;BME280;32029;51.358;5.628;2023-03-04T01:21:59;102366.09;;;9.53;60.75
46303;BME280;32029;51.358;5.628;2023-03-04T01:24:26;102347.75;;;9.44;61.24
46303;BME280;32029;51.358;5.628;2023-03-04T01:26:52;102369.56;;;9.55;61.06
46303;BME280;32029;51.358;5.628;2023-03-04T01:29:19;102363.38;;;9.53;61.45
46303;BME280;32029;51.358;5.628;2023-03-04T01:31:46;102367.25;;;9.50;61.23
46303;BME280;32029;51.358;5.628;2023-03-04T01:34:12;102332.34;;;9.33;61.78
46303;BME280;32029;51.358;5.628;2023-03-04T01:36:39;102350.22;;;9.47;61.81
46303;BME280;32029;51.358;5.628;2023-03-04T01:39:06;102346.50;;;9.48;61.92
46303;BME280;32029;51.358;5.628;2023-03-04T01:41:33;102351.97;;;9.48;61.73
46303;BME280;32029;51.358;5.628;2023-03-04T01:44:00;102350.97;;;9.49;62.06
46303;BME280;32029;51.358;5.628;2023-03-04T01:46:29;102350.09;;;9.48;62.01
46303;BME280;32029;51.358;5.628;2023-03-04T01:48:57;102344.03;;;9.45;61.85
46303;BME280;32029;51.358;5.628;2023-03-04T01:51:24;102342.75;;;9.49;61.98
46303;BME280;32029;51.358;5.628;2023-03-04T01:53:50;102349.66;;;9.53;61.62
46303;BME280;32029;51.358;5.628;2023-03-04T01:56:28;102329.31;;;9.46;61.54
46303;BME280;32029;51.358;5.628;2023-03-04T01:59:17;102336.53;;;9.47;61.78
46303;BME280;32029;51.358;5.628;2023-03-04T02:01:49;102337.81;;;9.43;61.79
46303;BME280;32029;51.358;5.628;2023-03-04T02:04:18;102333.34;;;9.42;61.70
46303;BME280;32029;51.358;5.628;2023-03-04T02:06:46;102259.50;;;8.92;61.61
46303;BME280;32029;51.358;5.628;2023-03-04T02:09:15;102330.63;;;9.42;62.12
46303;BME280;32029;51.358;5.628;2023-03-04T02:11:43;102331.47;;;9.42;61.85
46303;BME280;32029;51.358;5.628;2023-03-04T02:14:11;102325.41;;;9.39;62.13
46303;BME280;32029;51.358;5.628;2023-03-04T02:16:38;102300.03;;;9.27;62.33
46303;BME280;32029;51.358;5.628;2023-03-04T02:19:12;102303.06;;;9.33;62.11
46303;BME280;32029;51.358;5.628;2023-03-04T02:21:41;102322.56;;;9.40;62.22
46303;BME280;32029;51.358;5.628;2023-03-04T02:27:13;102317.94;;;9.41;62.21
46303;BME280;32029;51.358;5.628;2023-03-04T02:29:39;102322.41;;;9.42;62.38
46303;BME280;32029;51.358;5.628;2023-03-04T02:32:10;102319.50;;;9.33;61.88
46303;BME280;32029;51.358;5.628;2023-03-04T02:34:43;102308.09;;;9.09;62.13
46303;BME280;32029;51.358;5.628;2023-03-04T02:37:11;102309.81;;;9.10;62.23
46303;BME280;32029;51.358;5.628;2023-03-04T02:39:43;102306.66;;;9.05;62.39
46303;BME280;32029;51.358;5.628;2023-03-04T02:42:10;102307.53;;;9.05;63.07
46303;BME280;32029;51.358;5.628;2023-03-04T02:44:39;102300.59;;;9.01;62.80
46303;BME280;32029;51.358;5.628;2023-03-04T02:47:09;102301.88;;;9.07;63.06
46303;BME280;32029;51.358;5.628;2023-03-04T02:49:38;102287.03;;;9.00;63.02
46303;BME280;32029;51.358;5.628;2023-03-04T02:54:41;102280.13;;;9.05;63.36
46303;BME280;32029;51.358;5.628;2023-03-04T02:57:09;102288.34;;;9.15;63.43
46303;BME280;32029;51.358;5.628;2023-03-04T02:59:38;102293.69;;;9.17;63.50
46303;BME280;32029;51.358;5.628;2023-03-04T03:02:05;102285.47;;;9.07;63.41
46303;BME280;32029;51.358;5.628;2023-03-04T03:04:33;102289.66;;;9.11;63.51
46303;BME280;32029;51.358;5.628;2023-03-04T03:07:02;102291.25;;;9.14;63.58
46303;BME280;32029;51.358;5.628;2023-03-04T03:09:29;102260.09;;;8.95;63.39
46303;BME280;32029;51.358;5.628;2023-03-04T03:11:56;102284.44;;;9.08;63.64
46303;BME280;32029;51.358;5.628;2023-03-04T03:14:23;102266.13;;;8.99;63.54
46303;BME280;32029;51.358;5.628;2023-03-04T03:16:49;102295.13;;;9.11;63.39
46303;BME280;32029;51.358;5.628;2023-03-04T03:19:16;102283.59;;;9.07;63.58
46303;BME280;32029;51.358;5.628;2023-03-04T03:21:43;102289.06;;;9.07;64.13
46303;BME280;32029;51.358;5.628;2023-03-04T03:24:10;102277.81;;;9.11;63.99
46303;BME280;32029;51.358;5.628;2023-03-04T03:26:36;102281.16;;;9.14;64.38
46303;BME280;32029;51.358;5.628;2023-03-04T03:29:05;102243.50;;;8.97;64.15
46303;BME280;32029;51.358;5.628;2023-03-04T03:31:32;102282.44;;;9.20;63.69
46303;BME280;32029;51.358;5.628;2023-03-04T03:33:58;102251.16;;;9.03;63.59
46303;BME280;32029;51.358;5.628;2023-03-04T03:36:25;102273.34;;;9.19;63.92
46303;BME280;32029;51.358;5.628;2023-03-04T03:38:52;102278.13;;;9.17;63.58
46303;BME280;32029;51.358;5.628;2023-03-04T03:41:19;102279.84;;;9.18;63.65
46303;BME280;32029;51.358;5.628;2023-03-04T03:43:45;102275.25;;;9.19;63.88
46303;BME280;32029;51.358;5.628;2023-03-04T03:46:12;102257.50;;;9.03;63.55
46303;BME280;32029;51.358;5.628;2023-03-04T03:48:39;102277.13;;;9.18;63.79
46303;BME280;32029;51.358;5.628;2023-03-04T03:51:06;102281.56;;;9.19;63.84
46303;BME280;32029;51.358;5.628;2023-03-04T03:53:32;102264.28;;;9.19;63.94
46303;BME280;32029;51.358;5.628;2023-03-04T03:55:59;102283.03;;;9.23;63.90
46303;BME280;32029;51.358;5.628;2023-03-04T03:58:26;102238.47;;;9.02;63.68
46303;BME280;32029;51.358;5.628;2023-03-04T04:00:53;102260.38;;;9.12;64.25
46303;BME280;32029;51.358;5.628;2023-03-04T04:03:20;102244.09;;;9.10;63.96
46303;BME280;32029;51.358;5.628;2023-03-04T04:05:47;102274.09;;;9.21;64.41
46303;BME280;32029;51.358;5.628;2023-03-04T04:08:15;102271.19;;;9.23;63.80
46303;BME280;32029;51.358;5.628;2023-03-04T04:10:42;102273.78;;;9.24;64.25
46303;BME280;32029;51.358;5.628;2023-03-04T04:13:09;102268.03;;;9.27;64.46
46303;BME280;32029;51.358;5.628;2023-03-04T04:15:36;102274.25;;;9.29;64.14
46303;BME280;32029;51.358;5.628;2023-03-04T04:18:05;102273.22;;;9.30;63.96
46303;BME280;32029;51.358;5.628;2023-03-04T04:20:32;102270.47;;;9.30;63.86
46303;BME280;32029;51.358;5.628;2023-03-04T04:22:59;102255.63;;;9.14;64.09
46303;BME280;32029;51.358;5.628;2023-03-04T04:25:26;102273.38;;;9.29;64.11
46303;BME280;32029;51.358;5.628;2023-03-04T04:27:52;102269.19;;;9.25;64.13
46303;BME280;32029;51.358;5.628;2023-03-04T04:30:19;102282.31;;;9.31;64.29
46303;BME280;32029;51.358;5.628;2023-03-04T04:32:46;102263.84;;;9.23;64.75
46303;BME280;32029;51.358;5.628;2023-03-04T04:35:13;102281.28;;;9.32;64.65
46303;BME280;32029;51.358;5.628;2023-03-04T04:37:39;102255.22;;;9.18;64.60
46303;BME280;32029;51.358;5.628;2023-03-04T04:40:07;102254.78;;;9.23;64.78
46303;BME280;32029;51.358;5.628;2023-03-04T04:42:34;102278.13;;;9.37;64.45
46303;BME280;32029;51.358;5.628;2023-03-04T04:45:00;102276.25;;;9.37;64.80
46303;BME280;32029;51.358;5.628;2023-03-04T04:47:27;102284.59;;;9.36;64.53
46303;BME280;32029;51.358;5.628;2023-03-04T04:49:54;102284.59;;;9.36;64.75
46303;BME280;32029;51.358;5.628;2023-03-04T04:52:21;102255.47;;;9.15;64.48
46303;BME280;32029;51.358;5.628;2023-03-04T04:54:47;102284.47;;;9.27;64.60
46303;BME280;32029;51.358;5.628;2023-03-04T04:57:14;102269.75;;;9.19;64.55
46303;BME280;32029;51.358;5.628;2023-03-04T04:59:41;102267.88;;;9.19;64.92
46303;BME280;32029;51.358;5.628;2023-03-04T05:02:08;102292.25;;;9.32;64.39
46303;BME280;32029;51.358;5.628;2023-03-04T05:04:34;102276.53;;;9.24;64.42
46303;BME280;32029;51.358;5.628;2023-03-04T05:07:01;102290.09;;;9.36;64.70
46303;BME280;32029;51.358;5.628;2023-03-04T05:09:28;102290.81;;;9.38;64.33
46303;BME280;32029;51.358;5.628;2023-03-04T05:11:55;102290.53;;;9.41;64.76
46303;BME280;32029;51.358;5.628;2023-03-04T05:14:21;102290.38;;;9.42;64.07
46303;BME280;32029;51.358;5.628;2023-03-04T05:16:48;102287.66;;;9.42;64.26
46303;BME280;32029;51.358;5.628;2023-03-04T05:19:15;102286.78;;;9.42;64.25
46303;BME280;32029;51.358;5.628;2023-03-04T05:21:42;102287.47;;;9.44;63.90
46303;BME280;32029;51.358;5.628;2023-03-04T05:24:09;102282.00;;;9.44;63.92
46303;BME280;32029;51.358;5.628;2023-03-04T05:26:35;102258.50;;;9.31;63.67
46303;BME280;32029;51.358;5.628;2023-03-04T05:29:03;102280.16;;;9.44;63.79
46303;BME280;32029;51.358;5.628;2023-03-04T05:31:29;102281.31;;;9.42;63.51
46303;BME280;32029;51.358;5.628;2023-03-04T05:33:56;102283.19;;;9.41;63.71
46303;BME280;32029;51.358;5.628;2023-03-04T05:36:23;102281.16;;;9.43;63.32
46303;BME280;32029;51.358;5.628;2023-03-04T05:38:50;102286.78;;;9.42;63.65
46303;BME280;32029;51.358;5.628;2023-03-04T05:41:16;102232.28;;;9.10;63.83
46303;BME280;32029;51.358;5.628;2023-03-04T05:43:45;102285.63;;;9.44;63.71
46303;BME280;32029;51.358;5.628;2023-03-04T05:46:14;102287.34;;;9.45;63.86
46303;BME280;32029;51.358;5.628;2023-03-04T05:48:41;102289.94;;;9.47;63.35
46303;BME280;32029;51.358;5.628;2023-03-04T05:51:08;102273.53;;;9.37;63.52
46303;BME280;32029;51.358;5.628;2023-03-04T05:53:35;102290.97;;;9.46;63.49
46303;BME280;32029;51.358;5.628;2023-03-04T05:56:09;102289.09;;;9.46;63.19
46303;BME280;32029;51.358;5.628;2023-03-04T05:58:36;102282.00;;;9.44;63.08
46303;BME280;32029;51.358;5.628;2023-03-04T06:01:04;102282.72;;;9.36;63.47
46303;BME280;32029;51.358;5.628;2023-03-04T06:03:31;102278.41;;;9.33;63.26
46303;BME280;32029;51.358;5.628;2023-03-04T06:05:58;102292.41;;;9.40;63.49
46303;BME280;32029;51.358;5.628;2023-03-04T06:08:25;102292.53;;;9.39;63.56
46303;BME280;32029;51.358;5.628;2023-03-04T06:10:54;102293.97;;;9.43;63.57
46303;BME280;32029;51.358;5.628;2023-03-04T06:13:21;102298.44;;;9.44;63.49
46303;BME280;32029;51.358;5.628;2023-03-04T06:15:55;102292.97;;;9.44;63.44
46303;BME280;32029;51.358;5.628;2023-03-04T06:18:24;102299.19;;;9.46;63.59
46303;BME280;32029;51.358;5.628;2023-03-04T06:20:59;102287.34;;;9.36;63.35
46303;BME280;32029;51.358;5.628;2023-03-04T06:23:26;102280.72;;;9.38;63.48
46303;BME280;32029;51.358;5.628;2023-03-04T06:25:55;102297.88;;;9.50;63.77
46303;BME280;32029;51.358;5.628;2023-03-04T06:28:22;102306.97;;;9.50;63.48
46303;BME280;32029;51.358;5.628;2023-03-04T06:30:53;102281.75;;;9.37;63.84
46303;BME280;32029;51.358;5.628;2023-03-04T06:33:20;102281.28;;;9.32;63.29
46303;BME280;32029;51.358;5.628;2023-03-04T06:35:47;102292.53;;;9.39;63.55
46303;BME280;32029;51.358;5.628;2023-03-04T06:38:14;102297.44;;;9.35;63.73
46303;BME280;32029;51.358;5.628;2023-03-04T06:40:41;102297.31;;;9.37;63.77
46303;BME280;32029;51.358;5.628;2023-03-04T06:43:08;102321.09;;;9.46;63.87
46303;BME280;32029;51.358;5.628;2023-03-04T06:45:34;102311.00;;;9.37;64.09
46303;BME280;32029;51.358;5.628;2023-03-04T06:48:04;102319.66;;;9.42;64.17
46303;BME280;32029;51.358;5.628;2023-03-04T06:50:30;102320.53;;;9.42;64.40
46303;BME280;32029;51.358;5.628;2023-03-04T06:52:57;102322.84;;;9.37;64.45
46303;BME280;32029;51.358;5.628;2023-03-04T06:55:24;102331.19;;;9.36;64.92
46303;BME280;32029;51.358;5.628;2023-03-04T06:57:51;102325.69;;;9.36;64.99
46303;BME280;32029;51.358;5.628;2023-03-04T07:00:18;102330.19;;;9.37;64.70
46303;BME280;32029;51.358;5.628;2023-03-04T07:02:45;102318.78;;;9.31;64.89
46303;BME280;32029;51.358;5.628;2023-03-04T07:05:11;102307.13;;;9.29;64.73
46303;BME280;32029;51.358;5.628;2023-03-04T07:07:38;102306.66;;;9.24;65.08
46303;BME280;32029;51.358;5.628;2023-03-04T07:10:05;102307.53;;;9.25;65.26
46303;BME280;32029;51.358;5.628;2023-03-04T07:12:32;102326.28;;;9.29;65.15
46303;BME280;32029;51.358;5.628;2023-03-04T07:14:59;102334.38;;;9.41;65.13
46303;BME280;32029;51.358;5.628;2023-03-04T07:17:25;102318.78;;;9.31;65.32
46303;BME280;32029;51.358;5.628;2023-03-04T07:19:52;102338.69;;;9.43;65.46
46303;BME280;32029;51.358;5.628;2023-03-04T07:22:19;102332.81;;;9.48;65.21
46303;BME280;32029;51.358;5.628;2023-03-04T07:24:46;102325.41;;;9.39;65.29
46303;BME280;32029;51.358;5.628;2023-03-04T07:27:12;102324.72;;;9.37;64.90
46303;BME280;32029;51.358;5.628;2023-03-04T07:29:39;102292.41;;;9.21;65.28
46303;BME280;32029;51.358;5.628;2023-03-04T07:32:07;102344.75;;;9.47;65.17
46303;BME280;32029;51.358;5.628;2023-03-04T07:34:34;102342.00;;;9.47;65.14
46303;BME280;32029;51.358;5.628;2023-03-04T07:37:01;102338.41;;;9.46;65.05
46303;BME280;32029;51.358;5.628;2023-03-04T07:39:28;102361.66;;;9.52;65.20
46303;BME280;32029;51.358;5.628;2023-03-04T07:41:55;102354.56;;;9.49;65.62
46303;BME280;32029;51.358;5.628;2023-03-04T07:44:21;102315.34;;;9.29;65.57
46303;BME280;32029;51.358;5.628;2023-03-04T07:46:48;102355.84;;;9.45;65.97
46303;BME280;32029;51.358;5.628;2023-03-04T07:49:15;102361.19;;;9.47;66.16
46303;BME280;32029;51.358;5.628;2023-03-04T07:51:42;102350.81;;;9.41;65.99
46303;BME280;32029;51.358;5.628;2023-03-04T07:54:08;102337.69;;;9.35;66.41
46303;BME280;32029;51.358;5.628;2023-03-04T07:56:35;102359.88;;;9.51;66.25
46303;BME280;32029;51.358;5.628;2023-03-04T07:59:02;102362.06;;;9.57;66.25
46303;BME280;32029;51.358;5.628;2023-03-04T08:01:34;102358.31;;;9.58;66.47
46303;BME280;32029;51.358;5.628;2023-03-04T08:04:03;102337.41;;;9.57;66.40
46303;BME280;32029;51.358;5.628;2023-03-04T08:06:30;102365.38;;;9.70;66.59
46303;BME280;32029;51.358;5.628;2023-03-04T08:09:03;102343.75;;;9.57;66.62
46303;BME280;32029;51.358;5.628;2023-03-04T08:11:32;102357.00;;;9.62;66.24
46303;BME280;32029;51.358;5.628;2023-03-04T08:13:59;102349.97;;;9.60;66.41
46303;BME280;32029;51.358;5.628;2023-03-04T08:16:26;102356.72;;;9.65;66.41
46303;BME280;32029;51.358;5.628;2023-03-04T08:18:55;102372.19;;;9.76;66.47
46303;BME280;32029;51.358;5.628;2023-03-04T08:21:23;102360.91;;;9.69;66.02
46303;BME280;32029;51.358;5.628;2023-03-04T08:23:50;102378.09;;;9.81;66.29
46303;BME280;32029;51.358;5.628;2023-03-04T08:26:21;102366.66;;;9.86;66.36
46303;BME280;32029;51.358;5.628;2023-03-04T08:28:49;102372.44;;;9.82;66.60
46303;BME280;32029;51.358;5.628;2023-03-04T08:31:17;102377.19;;;9.90;66.36
46303;BME280;32029;51.358;5.628;2023-03-04T08:33:44;102378.06;;;9.91;66.58
46303;BME280;32029;51.358;5.628;2023-03-04T08:36:12;102366.38;;;9.79;66.67
46303;BME280;32029;51.358;5.628;2023-03-04T08:38:39;102384.84;;;9.87;66.81
46303;BME280;32029;51.358;5.628;2023-03-04T08:41:06;102384.56;;;9.90;68.68
46303;BME280;32029;51.358;5.628;2023-03-04T08:43:33;102373.31;;;9.93;69.44
46303;BME280;32029;51.358;5.628;2023-03-04T08:46:00;102370.41;;;9.94;69.24
46303;BME280;32029;51.358;5.628;2023-03-04T08:48:27;102379.06;;;10.09;69.40
46303;BME280;32029;51.358;5.628;2023-03-04T08:50:53;102365.22;;;10.11;69.96
46303;BME280;32029;51.358;5.628;2023-03-04T08:53:20;102358.72;;;10.12;69.08
46303;BME280;32029;51.358;5.628;2023-03-04T08:55:47;102382.81;;;10.27;68.87
46303;BME280;32029;51.358;5.628;2023-03-04T08:58:15;102377.06;;;10.30;68.12
46303;BME280;32029;51.358;5.628;2023-03-04T09:00:45;102375.00;;;10.33;67.85
46303;BME280;32029;51.358;5.628;2023-03-04T09:03:14;102381.91;;;10.37;67.22
46303;BME280;32029;51.358;5.628;2023-03-04T09:05:43;102376.72;;;10.34;68.22
46303;BME280;32029;51.358;5.628;2023-03-04T09:08:10;102375.75;;;10.35;68.72
46303;BME280;32029;51.358;5.628;2023-03-04T09:10:36;102368.66;;;10.42;68.01
46303;BME280;32029;51.358;5.628;2023-03-04T09:13:03;102370.78;;;10.48;67.83
46303;BME280;32029;51.358;5.628;2023-03-04T09:15:32;102358.78;;;10.49;67.24
46303;BME280;32029;51.358;5.628;2023-03-04T09:18:02;102360.47;;;10.60;67.37
46303;BME280;32029;51.358;5.628;2023-03-04T09:20:31;102367.09;;;10.67;66.72
46303;BME280;32029;51.358;5.628;2023-03-04T09:22:57;102364.19;;;10.68;66.84
46303;BME280;32029;51.358;5.628;2023-03-04T09:25:24;102341.38;;;10.68;66.75
46303;BME280;32029;51.358;5.628;2023-03-04T09:27:51;102357.19;;;10.84;65.74
46303;BME280;32029;51.358;5.628;2023-03-04T09:30:18;102360.19;;;10.90;65.45
46303;BME280;32029;51.358;5.628;2023-03-04T09:32:45;102347.03;;;10.94;65.11
46303;BME280;32029;51.358;5.628;2023-03-04T09:35:11;102339.25;;;10.89;64.25
46303;BME280;32029;51.358;5.628;2023-03-04T09:37:38;102357.72;;;10.97;64.04
46303;BME280;32029;51.358;5.628;2023-03-04T09:40:05;102342.41;;;10.94;64.24
46303;BME280;32029;51.358;5.628;2023-03-04T09:42:44;102356.53;;;10.99;64.12
46303;BME280;32029;51.358;5.628;2023-03-04T09:45:17;102359.13;;;11.01;63.67
46303;BME280;32029;51.358;5.628;2023-03-04T09:47:47;102352.91;;;10.99;63.92
46303;BME280;32029;51.358;5.628;2023-03-04T09:50:16;102350.72;;;11.02;63.81
46303;BME280;32029;51.358;5.628;2023-03-04T09:55:34;102352.13;;;11.16;63.85
46303;BME280;32029;51.358;5.628;2023-03-04T09:59:31;102349.16;;;11.27;63.57
46303;BME280;32029;51.358;5.628;2023-03-04T10:01:31;102353.31;;;11.32;63.37
46303;BME280;32029;51.358;5.628;2023-03-04T10:04:33;102352.59;;;11.29;63.33
46303;BME280;32029;51.358;5.628;2023-03-04T10:07:02;102345.94;;;11.32;63.50
46303;BME280;32029;51.358;5.628;2023-03-04T10:09:48;102338.69;;;11.31;63.45
46303;BME280;32029;51.358;5.628;2023-03-04T10:12:21;102322.06;;;11.33;63.35
46303;BME280;32029;51.358;5.628;2023-03-04T10:15:00;102340.44;;;11.50;62.96
46303;BME280;32029;51.358;5.628;2023-03-04T10:17:39;102341.41;;;11.59;62.79
46303;BME280;32029;51.358;5.628;2023-03-04T10:22:36;102339.47;;;11.77;61.94
46303;BME280;32029;51.358;5.628;2023-03-04T10:27:56;102330.75;;;11.99;61.44
46303;BME280;32029;51.358;5.628;2023-03-04T10:33:31;102312.84;;;11.95;60.79
46303;BME280;32029;51.358;5.628;2023-03-04T10:36:02;102326.50;;;12.05;60.91
46303;BME280;32029;51.358;5.628;2023-03-04T10:38:33;102334.75;;;12.05;60.63
46303;BME280;32029;51.358;5.628;2023-03-04T10:41:00;102310.72;;;11.89;60.57
46303;BME280;32029;51.358;5.628;2023-03-04T10:43:28;102329.97;;;11.89;60.80
46303;BME280;32029;51.358;5.628;2023-03-04T10:45:58;102336.44;;;11.98;61.02
46303;BME280;32029;51.358;5.628;2023-03-04T10:48:28;102331.25;;;11.95;60.93
46303;BME280;32029;51.358;5.628;2023-03-04T10:51:20;102328.56;;;12.03;61.35
46303;BME280;32029;51.358;5.628;2023-03-04T10:53:50;102334.13;;;12.11;60.84
46303;BME280;32029;51.358;5.628;2023-03-04T11:04:53;102300.59;;;12.16;60.63
46303;BME280;32029;51.358;5.628;2023-03-04T11:07:25;102301.47;;;12.16;60.14
46303;BME280;32029;51.358;5.628;2023-03-04T11:09:52;102291.97;;;12.11;60.72
46303;BME280;32029;51.358;5.628;2023-03-04T11:12:30;102317.38;;;12.31;60.74
46303;BME280;32029;51.358;5.628;2023-03-04T11:14:57;102313.28;;;12.35;60.37
46303;BME280;32029;51.358;5.628;2023-03-04T11:17:41;102296.69;;;12.18;60.20
46303;BME280;32029;51.358;5.628;2023-03-04T11:20:25;102309.78;;;12.24;60.59
46303;BME280;32029;51.358;5.628;2023-03-04T11:22:56;102309.78;;;12.24;61.00
46303;BME280;32029;51.358;5.628;2023-03-04T11:25:40;102303.44;;;12.32;60.87
46303;BME280;32029;51.358;5.628;2023-03-04T11:28:21;102302.28;;;12.35;60.84
46303;BME280;32029;51.358;5.628;2023-03-04T11:30:56;102308.09;;;12.32;60.64
46303;BME280;32029;51.358;5.628;2023-03-04T11:33:37;102297.25;;;12.30;60.46
46303;BME280;32029;51.358;5.628;2023-03-04T11:36:22;102291.91;;;12.29;60.72
46303;BME280;32029;51.358;5.628;2023-03-04T11:38:50;102297.25;;;12.30;60.73
46303;BME280;32029;51.358;5.628;2023-03-04T11:41:34;102286.09;;;12.32;60.63
46303;BME280;32029;51.358;5.628;2023-03-04T11:44:05;102236.78;;;12.12;60.87
46303;BME280;32029;51.358;5.628;2023-03-04T11:46:44;102286.34;;;12.46;60.70
46303;BME280;32029;51.358;5.628;2023-03-04T11:49:41;102267.97;;;12.55;60.31
46303;BME280;32029;51.358;5.628;2023-03-04T11:52:38;102282.44;;;12.57;60.02
46303;BME280;32029;51.358;5.628;2023-03-04T11:57:48;102270.75;;;12.63;60.05
46303;BME280;32029;51.358;5.628;2023-03-04T12:00:35;102258.38;;;12.67;60.23
46303;BME280;32029;51.358;5.628;2023-03-04T12:03:43;102254.59;;;12.60;60.65
46303;BME280;32029;51.358;5.628;2023-03-04T12:06:43;102259.44;;;12.74;60.40
46303;BME280;32029;51.358;5.628;2023-03-04T12:11:50;102243.97;;;12.90;60.46
46303;BME280;32029;51.358;5.628;2023-03-04T12:14:36;102236.59;;;12.98;59.69
46303;BME280;32029;51.358;5.628;2023-03-04T12:25:41;102222.69;;;13.08;59.54
46303;BME280;32029;51.358;5.628;2023-03-04T12:33:37;102198.53;;;12.86;60.22
46303;BME280;32029;51.358;5.628;2023-03-04T12:36:22;102215.25;;;12.92;60.68
46303;BME280;32029;51.358;5.628;2023-03-04T12:42:03;102189.56;;;12.75;60.91
46303;BME280;32029;51.358;5.628;2023-03-04T12:44:41;102222.47;;;12.85;61.47
46303;BME280;32029;51.358;5.628;2023-03-04T12:47:34;102205.75;;;12.87;61.57
46303;BME280;32029;51.358;5.628;2023-03-04T12:53:07;102192.34;;;12.92;61.17
46303;BME280;32029;51.358;5.628;2023-03-04T12:55:39;102194.78;;;13.03;61.41
46303;BME280;32029;51.358;5.628;2023-03-04T12:58:15;102195.78;;;13.10;61.16
46303;BME280;32029;51.358;5.628;2023-03-04T13:03:39;102187.53;;;13.02;61.28
46303;BME280;32029;51.358;5.628;2023-03-04T13:06:15;102185.81;;;13.01;61.75
46303;BME280;32029;51.358;5.628;2023-03-04T13:14:22;102170.31;;;13.08;61.73
46303;BME280;32029;51.358;5.628;2023-03-04T13:16:51;102159.63;;;13.05;61.58
46303;BME280;32029;51.358;5.628;2023-03-04T13:19:48;102166.53;;;13.17;61.46
46303;BME280;32029;51.358;5.628;2023-03-04T13:25:31;102164.84;;;13.24;61.82
46303;BME280;32029;51.358;5.628;2023-03-04T13:46:27;102148.94;;;12.86;62.33
46303;BME280;32029;51.358;5.628;2023-03-04T13:51:37;102129.63;;;12.69;62.86
46303;BME280;32029;51.358;5.628;2023-03-04T13:54:14;102131.53;;;12.69;63.38
46303;BME280;32029;51.358;5.628;2023-03-04T13:56:43;102124.13;;;12.61;63.61
46303;BME280;32029;51.358;5.628;2023-03-04T14:02:13;102143.41;;;12.69;64.54
46303;BME280;32029;51.358;5.628;2023-03-04T14:04:44;102142.03;;;12.65;65.30
46303;BME280;32029;51.358;5.628;2023-03-04T14:07:30;102149.25;;;12.66;65.62
46303;BME280;32029;51.358;5.628;2023-03-04T14:10:03;102144.06;;;12.63;66.69
46303;BME280;32029;51.358;5.628;2023-03-04T14:12:33;102131.16;;;12.56;67.04
46303;BME280;32029;51.358;5.628;2023-03-04T14:15:27;102136.00;;;12.62;68.47
46303;BME280;32029;51.358;5.628;2023-03-04T14:18:00;102043.31;;;12.04;69.56
46303;BME280;32029;51.358;5.628;2023-03-04T14:20:33;102137.53;;;12.56;70.29
46303;BME280;32029;51.358;5.628;2023-03-04T14:23:02;102134.63;;;12.58;70.21
46303;BME280;32029;51.358;5.628;2023-03-04T14:25:31;102138.94;;;12.60;70.39
46303;BME280;32029;51.358;5.628;2023-03-04T14:28:18;102108.09;;;12.48;70.91
46303;BME280;32029;51.358;5.628;2023-03-04T14:30:53;102127.91;;;12.60;70.58
46303;BME280;32029;51.358;5.628;2023-03-04T14:33:23;102122.88;;;12.56;71.13
46303;BME280;32029;51.358;5.628;2023-03-04T14:35:54;102106.00;;;12.42;71.26
46303;BME280;32029;51.358;5.628;2023-03-04T14:38:30;102123.06;;;12.54;71.19